sensor_id;sensor_type;location;lat;lon;timestamp;temperature;humidity
59007;DHT22;44792;52.760;6.726;2022-08-20T00:01:00;20.60;99.90
59007;DHT22;44792;52.760;6.726;2022-08-20T00:03:37;20.60;99.90
59007;DHT22;44792;52.760;6.726;2022-08-20T00:06:11;20.60;99.90
59007;DHT22;44792;52.760;6.726;2022-08-20T00:08:37;20.60;99.90
59007;DHT22;44792;52.760;6.726;2022-08-20T00:11:06;20.60;99.90
59007;DHT22;44792;52.760;6.726;2022-08-20T00:13:38;20.60;99.90
59007;DHT22;44792;52.760;6.726;2022-08-20T00:16:06;20.50;99.90
59007;DHT22;44792;52.760;6.726;2022-08-20T00:18:32;20.50;99.90
59007;DHT22;44792;52.760;6.726;2022-08-20T00:20:58;20.50;99.90
59007;DHT22;44792;52.760;6.726;2022-08-20T00:23:25;20.50;99.90
59007;DHT22;44792;52.760;6.726;2022-08-20T00:25:52;20.50;99.90
59007;DHT22;44792;52.760;6.726;2022-08-20T00:28:17;20.50;99.90
59007;DHT22;44792;52.760;6.726;2022-08-20T00:30:44;20.40;99.90
59007;DHT22;44792;52.760;6.726;2022-08-20T00:33:14;20.50;99.90
59007;DHT22;44792;52.760;6.726;2022-08-20T00:35:44;20.40;99.90
59007;DHT22;44792;52.760;6.726;2022-08-20T00:38:11;20.50;99.90
59007;DHT22;44792;52.760;6.726;2022-08-20T00:40:40;20.40;99.90
59007;DHT22;44792;52.760;6.726;2022-08-20T00:43:24;20.40;99.90
59007;DHT22;44792;52.760;6.726;2022-08-20T00:45:50;20.40;99.90
59007;DHT22;44792;52.760;6.726;2022-08-20T00:48:20;20.40;99.90
59007;DHT22;44792;52.760;6.726;2022-08-20T00:50:46;20.30;99.90
59007;DHT22;44792;52.760;6.726;2022-08-20T00:53:11;20.30;99.90
59007;DHT22;44792;52.760;6.726;2022-08-20T00:55:37;20.30;99.90
59007;DHT22;44792;52.760;6.726;2022-08-20T00:58:07;20.30;99.90
59007;DHT22;44792;52.760;6.726;2022-08-20T01:00:38;20.20;99.90
59007;DHT22;44792;52.760;6.726;2022-08-20T01:03:06;20.30;99.90
59007;DHT22;44792;52.760;6.726;2022-08-20T01:05:35;20.30;99.90
59007;DHT22;44792;52.760;6.726;2022-08-20T01:08:01;20.30;99.90
59007;DHT22;44792;52.760;6.726;2022-08-20T01:10:31;20.20;99.90
59007;DHT22;44792;52.760;6.726;2022-08-20T01:12:59;20.20;99.90
59007;DHT22;44792;52.760;6.726;2022-08-20T01:15:26;20.20;99.90
59007;DHT22;44792;52.760;6.726;2022-08-20T01:17:55;20.20;99.90
59007;DHT22;44792;52.760;6.726;2022-08-20T01:21:08;20.20;99.90
59007;DHT22;44792;52.760;6.726;2022-08-20T01:26:30;20.10;99.90
59007;DHT22;44792;52.760;6.726;2022-08-20T01:29:02;20.10;99.90
59007;DHT22;44792;52.760;6.726;2022-08-20T01:31:32;20.10;99.90
59007;DHT22;44792;52.760;6.726;2022-08-20T01:33:59;20.10;99.90
59007;DHT22;44792;52.760;6.726;2022-08-20T01:36:29;20.10;99.90
59007;DHT22;44792;52.760;6.726;2022-08-20T01:38:57;20.00;99.90
59007;DHT22;44792;52.760;6.726;2022-08-20T01:41:40;20.00;99.90
59007;DHT22;44792;52.760;6.726;2022-08-20T01:44:12;20.00;99.90
59007;DHT22;44792;52.760;6.726;2022-08-20T01:46:41;20.00;99.90
59007;DHT22;44792;52.760;6.726;2022-08-20T01:49:15;20.00;99.90
59007;DHT22;44792;52.760;6.726;2022-08-20T01:51:41;20.00;99.90
59007;DHT22;44792;52.760;6.726;2022-08-20T01:54:07;20.00;99.90
59007;DHT22;44792;52.760;6.726;2022-08-20T01:56:33;20.00;99.90
59007;DHT22;44792;52.760;6.726;2022-08-20T01:59:03;19.90;99.90
59007;DHT22;44792;52.760;6.726;2022-08-20T02:01:38;19.90;99.90
59007;DHT22;44792;52.760;6.726;2022-08-20T02:04:07;19.90;99.90
59007;DHT22;44792;52.760;6.726;2022-08-20T02:06:37;19.90;99.90
59007;DHT22;44792;52.760;6.726;2022-08-20T02:09:04;19.90;99.90
59007;DHT22;44792;52.760;6.726;2022-08-20T02:11:30;19.90;99.90
59007;DHT22;44792;52.760;6.726;2022-08-20T02:13:56;19.90;99.90
59007;DHT22;44792;52.760;6.726;2022-08-20T02:16:25;19.90;99.90
59007;DHT22;44792;52.760;6.726;2022-08-20T02:18:56;19.90;99.90
59007;DHT22;44792;52.760;6.726;2022-08-20T02:21:25;19.80;99.90
59007;DHT22;44792;52.760;6.726;2022-08-20T02:23:52;19.80;99.90
59007;DHT22;44792;52.760;6.726;2022-08-20T02:26:18;19.80;99.90
59007;DHT22;44792;52.760;6.726;2022-08-20T02:28:49;19.80;99.90
59007;DHT22;44792;52.760;6.726;2022-08-20T02:31:19;19.70;99.90
59007;DHT22;44792;52.760;6.726;2022-08-20T02:33:46;19.70;99.90
59007;DHT22;44792;52.760;6.726;2022-08-20T02:36:13;19.70;99.90
59007;DHT22;44792;52.760;6.726;2022-08-20T02:38:40;19.70;99.90
59007;DHT22;44792;52.760;6.726;2022-08-20T02:41:07;19.70;99.90
59007;DHT22;44792;52.760;6.726;2022-08-20T02:43:33;19.70;99.90
59007;DHT22;44792;52.760;6.726;2022-08-20T02:45:59;19.70;99.90
59007;DHT22;44792;52.760;6.726;2022-08-20T02:48:25;19.60;99.90
59007;DHT22;44792;52.760;6.726;2022-08-20T02:50:57;19.60;99.90
59007;DHT22;44792;52.760;6.726;2022-08-20T02:53:25;19.60;99.90
59007;DHT22;44792;52.760;6.726;2022-08-20T02:55:51;19.60;99.90
59007;DHT22;44792;52.760;6.726;2022-08-20T02:58:17;19.50;99.90
59007;DHT22;44792;52.760;6.726;2022-08-20T03:00:44;19.50;99.90
59007;DHT22;44792;52.760;6.726;2022-08-20T03:03:10;19.50;99.90
59007;DHT22;44792;52.760;6.726;2022-08-20T03:05:38;19.50;99.90
59007;DHT22;44792;52.760;6.726;2022-08-20T03:08:06;19.50;99.90
59007;DHT22;44792;52.760;6.726;2022-08-20T03:10:34;19.50;99.90
59007;DHT22;44792;52.760;6.726;2022-08-20T03:13:01;19.50;99.90
59007;DHT22;44792;52.760;6.726;2022-08-20T03:15:29;19.40;99.90
59007;DHT22;44792;52.760;6.726;2022-08-20T03:17:55;19.40;99.90
59007;DHT22;44792;52.760;6.726;2022-08-20T03:20:21;19.40;99.90
59007;DHT22;44792;52.760;6.726;2022-08-20T03:22:47;19.40;99.90
59007;DHT22;44792;52.760;6.726;2022-08-20T03:25:14;19.40;99.90
59007;DHT22;44792;52.760;6.726;2022-08-20T03:27:40;19.30;99.90
59007;DHT22;44792;52.760;6.726;2022-08-20T03:30:08;19.30;99.90
59007;DHT22;44792;52.760;6.726;2022-08-20T03:32:34;19.30;99.90
59007;DHT22;44792;52.760;6.726;2022-08-20T03:35:00;19.30;99.90
59007;DHT22;44792;52.760;6.726;2022-08-20T03:37:32;19.20;99.90
59007;DHT22;44792;52.760;6.726;2022-08-20T03:39:58;19.20;99.90
59007;DHT22;44792;52.760;6.726;2022-08-20T03:42:24;19.20;99.90
59007;DHT22;44792;52.760;6.726;2022-08-20T03:44:50;19.10;99.90
59007;DHT22;44792;52.760;6.726;2022-08-20T03:47:16;19.20;99.90
59007;DHT22;44792;52.760;6.726;2022-08-20T03:49:42;19.20;99.90
59007;DHT22;44792;52.760;6.726;2022-08-20T03:52:07;19.10;99.90
59007;DHT22;44792;52.760;6.726;2022-08-20T03:54:33;19.10;99.90
59007;DHT22;44792;52.760;6.726;2022-08-20T03:57:00;19.10;99.90
59007;DHT22;44792;52.760;6.726;2022-08-20T03:59:26;19.10;99.90
59007;DHT22;44792;52.760;6.726;2022-08-20T04:01:52;19.10;99.90
59007;DHT22;44792;52.760;6.726;2022-08-20T04:04:19;19.10;99.90
59007;DHT22;44792;52.760;6.726;2022-08-20T04:06:45;19.10;99.90
59007;DHT22;44792;52.760;6.726;2022-08-20T04:09:12;19.00;99.90
59007;DHT22;44792;52.760;6.726;2022-08-20T04:11:38;18.90;99.90
59007;DHT22;44792;52.760;6.726;2022-08-20T04:14:04;18.90;99.90
59007;DHT22;44792;52.760;6.726;2022-08-20T04:16:29;19.00;99.90
59007;DHT22;44792;52.760;6.726;2022-08-20T04:18:57;18.90;99.90
59007;DHT22;44792;52.760;6.726;2022-08-20T04:21:23;18.90;99.90
59007;DHT22;44792;52.760;6.726;2022-08-20T04:23:48;18.90;99.90
59007;DHT22;44792;52.760;6.726;2022-08-20T04:26:14;18.90;99.90
59007;DHT22;44792;52.760;6.726;2022-08-20T04:28:40;18.90;99.90
59007;DHT22;44792;52.760;6.726;2022-08-20T04:31:06;18.90;99.90
59007;DHT22;44792;52.760;6.726;2022-08-20T04:33:31;18.90;99.90
59007;DHT22;44792;52.760;6.726;2022-08-20T04:35:58;18.90;99.90
59007;DHT22;44792;52.760;6.726;2022-08-20T04:38:28;18.80;99.90
59007;DHT22;44792;52.760;6.726;2022-08-20T04:40:54;18.80;99.90
59007;DHT22;44792;52.760;6.726;2022-08-20T04:43:28;18.80;99.90
59007;DHT22;44792;52.760;6.726;2022-08-20T04:45:55;18.80;99.90
59007;DHT22;44792;52.760;6.726;2022-08-20T04:48:22;18.90;99.90
59007;DHT22;44792;52.760;6.726;2022-08-20T04:50:49;18.80;99.90
59007;DHT22;44792;52.760;6.726;2022-08-20T04:53:18;18.80;99.90
59007;DHT22;44792;52.760;6.726;2022-08-20T04:55:45;18.80;99.90
59007;DHT22;44792;52.760;6.726;2022-08-20T04:58:16;18.80;99.90
59007;DHT22;44792;52.760;6.726;2022-08-20T05:00:54;18.80;99.90
59007;DHT22;44792;52.760;6.726;2022-08-20T05:03:21;18.70;99.90
59007;DHT22;44792;52.760;6.726;2022-08-20T05:05:47;18.70;99.90
59007;DHT22;44792;52.760;6.726;2022-08-20T05:08:14;18.70;99.90
59007;DHT22;44792;52.760;6.726;2022-08-20T05:10:40;18.60;99.90
59007;DHT22;44792;52.760;6.726;2022-08-20T05:13:07;18.50;99.90
59007;DHT22;44792;52.760;6.726;2022-08-20T05:15:34;18.50;99.90
59007;DHT22;44792;52.760;6.726;2022-08-20T05:18:00;18.50;99.90
59007;DHT22;44792;52.760;6.726;2022-08-20T05:20:30;18.60;99.90
59007;DHT22;44792;52.760;6.726;2022-08-20T05:23:00;18.60;99.90
59007;DHT22;44792;52.760;6.726;2022-08-20T05:25:27;18.60;99.90
59007;DHT22;44792;52.760;6.726;2022-08-20T05:27:58;18.60;99.90
59007;DHT22;44792;52.760;6.726;2022-08-20T05:30:28;18.60;99.90
59007;DHT22;44792;52.760;6.726;2022-08-20T05:33:05;18.60;99.90
59007;DHT22;44792;52.760;6.726;2022-08-20T05:35:33;18.60;99.90
59007;DHT22;44792;52.760;6.726;2022-08-20T05:38:00;18.60;99.90
59007;DHT22;44792;52.760;6.726;2022-08-20T05:40:26;18.50;99.90
59007;DHT22;44792;52.760;6.726;2022-08-20T05:42:52;18.50;99.90
59007;DHT22;44792;52.760;6.726;2022-08-20T05:45:19;18.50;99.90
59007;DHT22;44792;52.760;6.726;2022-08-20T05:47:45;18.60;99.90
59007;DHT22;44792;52.760;6.726;2022-08-20T05:50:16;18.60;99.90
59007;DHT22;44792;52.760;6.726;2022-08-20T05:52:43;18.60;99.90
59007;DHT22;44792;52.760;6.726;2022-08-20T05:55:11;18.60;99.90
59007;DHT22;44792;52.760;6.726;2022-08-20T05:57:40;18.60;99.90
59007;DHT22;44792;52.760;6.726;2022-08-20T06:00:10;18.60;99.90
59007;DHT22;44792;52.760;6.726;2022-08-20T06:02:36;18.60;99.90
59007;DHT22;44792;52.760;6.726;2022-08-20T06:05:21;18.70;99.90
59007;DHT22;44792;52.760;6.726;2022-08-20T06:07:46;18.60;99.90
59007;DHT22;44792;52.760;6.726;2022-08-20T06:10:12;18.70;99.90
59007;DHT22;44792;52.760;6.726;2022-08-20T06:12:38;18.60;99.90
59007;DHT22;44792;52.760;6.726;2022-08-20T06:15:05;18.70;99.90
59007;DHT22;44792;52.760;6.726;2022-08-20T06:17:31;18.70;99.90
59007;DHT22;44792;52.760;6.726;2022-08-20T06:20:02;18.70;99.90
59007;DHT22;44792;52.760;6.726;2022-08-20T06:22:28;18.70;99.90
59007;DHT22;44792;52.760;6.726;2022-08-20T06:24:54;18.70;99.90
59007;DHT22;44792;52.760;6.726;2022-08-20T06:27:20;18.80;99.90
59007;DHT22;44792;52.760;6.726;2022-08-20T06:29:46;18.80;99.90
59007;DHT22;44792;52.760;6.726;2022-08-20T06:32:12;18.80;99.90
59007;DHT22;44792;52.760;6.726;2022-08-20T06:34:38;18.80;99.90
59007;DHT22;44792;52.760;6.726;2022-08-20T06:37:17;18.80;99.90
59007;DHT22;44792;52.760;6.726;2022-08-20T06:39:43;18.80;99.90
59007;DHT22;44792;52.760;6.726;2022-08-20T06:42:09;18.90;99.90
59007;DHT22;44792;52.760;6.726;2022-08-20T06:44:35;18.80;99.90
59007;DHT22;44792;52.760;6.726;2022-08-20T06:47:02;18.90;99.90
59007;DHT22;44792;52.760;6.726;2022-08-20T06:49:29;18.90;99.90
59007;DHT22;44792;52.760;6.726;2022-08-20T06:51:55;19.00;99.90
59007;DHT22;44792;52.760;6.726;2022-08-20T06:54:20;19.10;99.90
59007;DHT22;44792;52.760;6.726;2022-08-20T06:56:47;19.20;99.90
59007;DHT22;44792;52.760;6.726;2022-08-20T06:59:12;19.30;99.90
59007;DHT22;44792;52.760;6.726;2022-08-20T07:01:38;19.40;99.90
59007;DHT22;44792;52.760;6.726;2022-08-20T07:04:03;19.40;99.90
59007;DHT22;44792;52.760;6.726;2022-08-20T07:06:31;19.40;99.90
59007;DHT22;44792;52.760;6.726;2022-08-20T07:08:57;19.40;99.90
59007;DHT22;44792;52.760;6.726;2022-08-20T07:11:23;19.40;99.90
59007;DHT22;44792;52.760;6.726;2022-08-20T07:13:49;19.50;99.90
59007;DHT22;44792;52.760;6.726;2022-08-20T07:16:15;19.60;99.90
59007;DHT22;44792;52.760;6.726;2022-08-20T07:18:40;19.60;99.90
59007;DHT22;44792;52.760;6.726;2022-08-20T07:21:06;19.60;99.90
59007;DHT22;44792;52.760;6.726;2022-08-20T07:23:32;19.60;99.90
59007;DHT22;44792;52.760;6.726;2022-08-20T07:25:57;19.70;99.90
59007;DHT22;44792;52.760;6.726;2022-08-20T07:28:25;19.70;99.90
59007;DHT22;44792;52.760;6.726;2022-08-20T07:30:53;19.70;99.90
59007;DHT22;44792;52.760;6.726;2022-08-20T07:33:37;19.70;99.90
59007;DHT22;44792;52.760;6.726;2022-08-20T07:36:04;19.90;99.90
59007;DHT22;44792;52.760;6.726;2022-08-20T07:38:30;20.00;99.90
59007;DHT22;44792;52.760;6.726;2022-08-20T07:41:09;20.00;99.90
59007;DHT22;44792;52.760;6.726;2022-08-20T07:43:37;20.10;99.90
59007;DHT22;44792;52.760;6.726;2022-08-20T07:46:04;20.00;99.90
59007;DHT22;44792;52.760;6.726;2022-08-20T07:48:35;20.10;99.90
59007;DHT22;44792;52.760;6.726;2022-08-20T07:51:03;20.00;99.90
59007;DHT22;44792;52.760;6.726;2022-08-20T07:53:29;19.90;99.90
59007;DHT22;44792;52.760;6.726;2022-08-20T07:55:55;19.90;99.90
59007;DHT22;44792;52.760;6.726;2022-08-20T07:58:22;19.90;99.90
59007;DHT22;44792;52.760;6.726;2022-08-20T08:00:49;20.00;99.90
59007;DHT22;44792;52.760;6.726;2022-08-20T08:03:15;20.10;99.90
59007;DHT22;44792;52.760;6.726;2022-08-20T08:05:44;20.10;99.90
59007;DHT22;44792;52.760;6.726;2022-08-20T08:08:14;20.10;99.90
59007;DHT22;44792;52.760;6.726;2022-08-20T08:10:42;20.10;99.90
59007;DHT22;44792;52.760;6.726;2022-08-20T08:13:09;20.10;99.90
59007;DHT22;44792;52.760;6.726;2022-08-20T08:15:41;20.20;99.90
59007;DHT22;44792;52.760;6.726;2022-08-20T08:18:14;20.20;99.90
59007;DHT22;44792;52.760;6.726;2022-08-20T08:20:43;20.20;99.90
59007;DHT22;44792;52.760;6.726;2022-08-20T08:23:10;20.20;99.90
59007;DHT22;44792;52.760;6.726;2022-08-20T08:25:38;20.20;99.90
59007;DHT22;44792;52.760;6.726;2022-08-20T08:28:04;20.20;99.90
59007;DHT22;44792;52.760;6.726;2022-08-20T08:30:30;20.30;99.90
59007;DHT22;44792;52.760;6.726;2022-08-20T08:32:56;20.30;99.90
59007;DHT22;44792;52.760;6.726;2022-08-20T08:35:40;20.40;99.90
59007;DHT22;44792;52.760;6.726;2022-08-20T08:38:11;20.50;99.90
59007;DHT22;44792;52.760;6.726;2022-08-20T08:40:38;20.50;99.90
59007;DHT22;44792;52.760;6.726;2022-08-20T08:43:04;20.50;99.90
59007;DHT22;44792;52.760;6.726;2022-08-20T08:45:37;20.60;99.90
59007;DHT22;44792;52.760;6.726;2022-08-20T08:48:06;20.60;99.90
59007;DHT22;44792;52.760;6.726;2022-08-20T08:50:34;20.70;99.90
59007;DHT22;44792;52.760;6.726;2022-08-20T08:53:01;20.60;99.90
59007;DHT22;44792;52.760;6.726;2022-08-20T08:55:28;20.60;99.90
59007;DHT22;44792;52.760;6.726;2022-08-20T08:57:58;20.70;99.90
59007;DHT22;44792;52.760;6.726;2022-08-20T09:00:25;20.60;99.90
59007;DHT22;44792;52.760;6.726;2022-08-20T09:03:01;20.70;99.90
59007;DHT22;44792;52.760;6.726;2022-08-20T09:05:51;20.80;99.90
59007;DHT22;44792;52.760;6.726;2022-08-20T09:08:35;20.80;99.90
59007;DHT22;44792;52.760;6.726;2022-08-20T09:11:06;20.80;99.90
59007;DHT22;44792;52.760;6.726;2022-08-20T09:13:33;20.80;99.90
59007;DHT22;44792;52.760;6.726;2022-08-20T09:15:59;20.90;99.90
59007;DHT22;44792;52.760;6.726;2022-08-20T09:18:25;20.90;99.90
59007;DHT22;44792;52.760;6.726;2022-08-20T09:20:50;20.90;99.90
59007;DHT22;44792;52.760;6.726;2022-08-20T09:23:16;20.90;99.90
59007;DHT22;44792;52.760;6.726;2022-08-20T09:25:42;21.00;99.90
59007;DHT22;44792;52.760;6.726;2022-08-20T09:28:07;21.10;99.90
59007;DHT22;44792;52.760;6.726;2022-08-20T09:30:33;21.10;99.90
59007;DHT22;44792;52.760;6.726;2022-08-20T09:32:59;21.20;99.90
59007;DHT22;44792;52.760;6.726;2022-08-20T09:35:25;21.10;99.90
59007;DHT22;44792;52.760;6.726;2022-08-20T09:37:51;21.10;99.90
59007;DHT22;44792;52.760;6.726;2022-08-20T09:40:17;21.20;99.90
59007;DHT22;44792;52.760;6.726;2022-08-20T09:42:43;21.20;99.90
59007;DHT22;44792;52.760;6.726;2022-08-20T09:45:10;21.20;99.90
59007;DHT22;44792;52.760;6.726;2022-08-20T09:47:36;21.20;99.90
59007;DHT22;44792;52.760;6.726;2022-08-20T09:50:03;21.20;99.90
59007;DHT22;44792;52.760;6.726;2022-08-20T09:52:32;21.20;99.90
59007;DHT22;44792;52.760;6.726;2022-08-20T09:55:23;21.20;99.90
59007;DHT22;44792;52.760;6.726;2022-08-20T09:57:50;21.20;99.90
59007;DHT22;44792;52.760;6.726;2022-08-20T10:00:17;21.20;99.90
59007;DHT22;44792;52.760;6.726;2022-08-20T10:02:43;21.30;99.90
59007;DHT22;44792;52.760;6.726;2022-08-20T10:05:10;21.40;99.90
59007;DHT22;44792;52.760;6.726;2022-08-20T10:07:37;21.40;99.90
59007;DHT22;44792;52.760;6.726;2022-08-20T10:10:05;21.50;99.90
59007;DHT22;44792;52.760;6.726;2022-08-20T10:12:30;21.50;99.90
59007;DHT22;44792;52.760;6.726;2022-08-20T10:14:56;21.50;99.90
59007;DHT22;44792;52.760;6.726;2022-08-20T10:17:22;21.40;99.90
59007;DHT22;44792;52.760;6.726;2022-08-20T10:19:47;21.40;99.90
59007;DHT22;44792;52.760;6.726;2022-08-20T10:22:13;21.50;99.90
59007;DHT22;44792;52.760;6.726;2022-08-20T10:24:39;21.60;99.90
59007;DHT22;44792;52.760;6.726;2022-08-20T10:27:04;21.70;99.90
59007;DHT22;44792;52.760;6.726;2022-08-20T10:29:31;21.70;99.90
59007;DHT22;44792;52.760;6.726;2022-08-20T10:31:56;21.70;99.90
59007;DHT22;44792;52.760;6.726;2022-08-20T10:34:31;21.80;99.90
59007;DHT22;44792;52.760;6.726;2022-08-20T10:36:57;21.80;99.90
59007;DHT22;44792;52.760;6.726;2022-08-20T10:39:23;21.70;99.90
59007;DHT22;44792;52.760;6.726;2022-08-20T10:41:48;21.70;99.90
59007;DHT22;44792;52.760;6.726;2022-08-20T10:44:14;21.70;99.90
59007;DHT22;44792;52.760;6.726;2022-08-20T10:46:41;21.80;99.90
59007;DHT22;44792;52.760;6.726;2022-08-20T10:49:07;21.80;99.90
59007;DHT22;44792;52.760;6.726;2022-08-20T10:51:33;21.80;99.90
59007;DHT22;44792;52.760;6.726;2022-08-20T10:53:59;22.00;99.90
59007;DHT22;44792;52.760;6.726;2022-08-20T10:56:24;21.90;99.90
59007;DHT22;44792;52.760;6.726;2022-08-20T10:58:50;22.00;99.90
59007;DHT22;44792;52.760;6.726;2022-08-20T11:01:15;22.10;99.90
59007;DHT22;44792;52.760;6.726;2022-08-20T11:03:41;22.10;99.90
59007;DHT22;44792;52.760;6.726;2022-08-20T11:06:06;22.20;99.90
59007;DHT22;44792;52.760;6.726;2022-08-20T11:08:32;22.30;99.90
59007;DHT22;44792;52.760;6.726;2022-08-20T11:10:58;22.20;99.90
59007;DHT22;44792;52.760;6.726;2022-08-20T11:13:23;22.20;99.90
59007;DHT22;44792;52.760;6.726;2022-08-20T11:15:49;22.30;99.90
59007;DHT22;44792;52.760;6.726;2022-08-20T11:18:14;22.20;99.90
59007;DHT22;44792;52.760;6.726;2022-08-20T11:20:40;22.20;99.90
59007;DHT22;44792;52.760;6.726;2022-08-20T11:23:05;22.30;99.90
59007;DHT22;44792;52.760;6.726;2022-08-20T11:25:31;22.30;99.90
59007;DHT22;44792;52.760;6.726;2022-08-20T11:27:57;22.30;99.90
59007;DHT22;44792;52.760;6.726;2022-08-20T11:30:28;22.30;99.90
59007;DHT22;44792;52.760;6.726;2022-08-20T11:32:55;22.30;99.90
59007;DHT22;44792;52.760;6.726;2022-08-20T11:35:22;22.40;99.90
59007;DHT22;44792;52.760;6.726;2022-08-20T11:37:49;22.50;99.90
59007;DHT22;44792;52.760;6.726;2022-08-20T11:40:15;22.50;99.90
59007;DHT22;44792;52.760;6.726;2022-08-20T11:42:41;22.50;99.90
59007;DHT22;44792;52.760;6.726;2022-08-20T11:45:07;22.50;99.90
59007;DHT22;44792;52.760;6.726;2022-08-20T11:47:32;22.60;99.90
59007;DHT22;44792;52.760;6.726;2022-08-20T11:50:12;22.60;99.90
59007;DHT22;44792;52.760;6.726;2022-08-20T11:52:37;22.60;99.90
59007;DHT22;44792;52.760;6.726;2022-08-20T11:55:04;22.50;99.90
59007;DHT22;44792;52.760;6.726;2022-08-20T11:57:32;22.60;99.90
59007;DHT22;44792;52.760;6.726;2022-08-20T12:00:00;22.50;99.90
59007;DHT22;44792;52.760;6.726;2022-08-20T12:02:27;22.50;99.90
59007;DHT22;44792;52.760;6.726;2022-08-20T12:04:53;22.60;99.90
59007;DHT22;44792;52.760;6.726;2022-08-20T12:07:21;22.60;99.90
59007;DHT22;44792;52.760;6.726;2022-08-20T12:09:48;22.50;99.90
59007;DHT22;44792;52.760;6.726;2022-08-20T12:12:14;22.60;99.90
59007;DHT22;44792;52.760;6.726;2022-08-20T12:14:40;22.60;99.90
59007;DHT22;44792;52.760;6.726;2022-08-20T12:17:09;22.60;99.90
59007;DHT22;44792;52.760;6.726;2022-08-20T12:19:40;22.50;99.90
59007;DHT22;44792;52.760;6.726;2022-08-20T12:22:07;22.60;99.90
59007;DHT22;44792;52.760;6.726;2022-08-20T12:24:33;22.60;99.90
59007;DHT22;44792;52.760;6.726;2022-08-20T12:27:09;22.60;99.90
59007;DHT22;44792;52.760;6.726;2022-08-20T12:29:37;22.60;99.90
59007;DHT22;44792;52.760;6.726;2022-08-20T12:32:04;22.70;99.90
59007;DHT22;44792;52.760;6.726;2022-08-20T12:34:38;22.70;99.90
59007;DHT22;44792;52.760;6.726;2022-08-20T12:37:07;22.70;99.90
59007;DHT22;44792;52.760;6.726;2022-08-20T12:39:34;22.80;99.90
59007;DHT22;44792;52.760;6.726;2022-08-20T12:42:02;22.80;99.90
59007;DHT22;44792;52.760;6.726;2022-08-20T12:44:29;22.90;99.90
59007;DHT22;44792;52.760;6.726;2022-08-20T12:49:34;23.00;99.10
59007;DHT22;44792;52.760;6.726;2022-08-20T12:52:00;23.00;99.90
59007;DHT22;44792;52.760;6.726;2022-08-20T12:54:25;23.00;99.20
59007;DHT22;44792;52.760;6.726;2022-08-20T12:56:51;23.00;99.20
59007;DHT22;44792;52.760;6.726;2022-08-20T12:59:17;23.10;99.60
59007;DHT22;44792;52.760;6.726;2022-08-20T13:01:43;23.20;99.80
59007;DHT22;44792;52.760;6.726;2022-08-20T13:04:08;23.20;99.60
59007;DHT22;44792;52.760;6.726;2022-08-20T13:06:34;23.30;99.90
59007;DHT22;44792;52.760;6.726;2022-08-20T13:09:00;23.20;99.70
59007;DHT22;44792;52.760;6.726;2022-08-20T13:11:25;23.20;99.50
59007;DHT22;44792;52.760;6.726;2022-08-20T13:13:51;23.20;99.50
59007;DHT22;44792;52.760;6.726;2022-08-20T13:16:16;23.20;99.90
59007;DHT22;44792;52.760;6.726;2022-08-20T13:18:42;23.20;99.00
59007;DHT22;44792;52.760;6.726;2022-08-20T13:21:07;23.20;98.80
59007;DHT22;44792;52.760;6.726;2022-08-20T13:23:33;23.30;99.30
59007;DHT22;44792;52.760;6.726;2022-08-20T13:25:58;23.30;98.70
59007;DHT22;44792;52.760;6.726;2022-08-20T13:28:24;23.50;99.20
59007;DHT22;44792;52.760;6.726;2022-08-20T13:30:50;23.50;99.20
59007;DHT22;44792;52.760;6.726;2022-08-20T13:33:15;23.50;98.90
59007;DHT22;44792;52.760;6.726;2022-08-20T13:35:41;23.70;99.30
59007;DHT22;44792;52.760;6.726;2022-08-20T13:38:06;23.70;98.50
59007;DHT22;44792;52.760;6.726;2022-08-20T13:40:32;23.80;98.20
59007;DHT22;44792;52.760;6.726;2022-08-20T13:42:57;23.80;98.60
59007;DHT22;44792;52.760;6.726;2022-08-20T13:45:24;23.80;98.50
59007;DHT22;44792;52.760;6.726;2022-08-20T13:47:52;23.80;98.70
59007;DHT22;44792;52.760;6.726;2022-08-20T13:50:20;23.80;99.50
59007;DHT22;44792;52.760;6.726;2022-08-20T13:52:46;23.80;98.70
59007;DHT22;44792;52.760;6.726;2022-08-20T13:55:16;23.70;98.20
59007;DHT22;44792;52.760;6.726;2022-08-20T13:57:43;23.70;98.20
59007;DHT22;44792;52.760;6.726;2022-08-20T14:00:15;23.60;97.70
59007;DHT22;44792;52.760;6.726;2022-08-20T14:02:41;23.70;98.90
59007;DHT22;44792;52.760;6.726;2022-08-20T14:05:08;23.70;97.40
59007;DHT22;44792;52.760;6.726;2022-08-20T14:07:33;23.60;97.00
59007;DHT22;44792;52.760;6.726;2022-08-20T14:10:08;23.50;96.20
59007;DHT22;44792;52.760;6.726;2022-08-20T14:12:35;23.70;97.40
59007;DHT22;44792;52.760;6.726;2022-08-20T14:15:00;23.80;97.50
59007;DHT22;44792;52.760;6.726;2022-08-20T14:17:28;23.80;96.30
59007;DHT22;44792;52.760;6.726;2022-08-20T14:19:58;23.90;96.90
59007;DHT22;44792;52.760;6.726;2022-08-20T14:22:25;24.10;96.60
59007;DHT22;44792;52.760;6.726;2022-08-20T14:24:51;24.00;97.30
59007;DHT22;44792;52.760;6.726;2022-08-20T14:27:19;24.30;97.90
59007;DHT22;44792;52.760;6.726;2022-08-20T14:29:47;24.40;97.50
59007;DHT22;44792;52.760;6.726;2022-08-20T14:32:13;24.60;97.10
59007;DHT22;44792;52.760;6.726;2022-08-20T14:34:39;24.30;95.70
59007;DHT22;44792;52.760;6.726;2022-08-20T14:37:10;24.40;96.00
59007;DHT22;44792;52.760;6.726;2022-08-20T14:39:36;24.50;95.80
59007;DHT22;44792;52.760;6.726;2022-08-20T14:42:01;24.60;95.80
59007;DHT22;44792;52.760;6.726;2022-08-20T14:44:27;24.60;95.00
59007;DHT22;44792;52.760;6.726;2022-08-20T14:46:54;24.60;94.70
59007;DHT22;44792;52.760;6.726;2022-08-20T14:49:20;24.70;95.50
59007;DHT22;44792;52.760;6.726;2022-08-20T14:51:47;24.70;94.50
59007;DHT22;44792;52.760;6.726;2022-08-20T14:54:12;24.60;94.60
59007;DHT22;44792;52.760;6.726;2022-08-20T14:56:38;24.60;94.80
59007;DHT22;44792;52.760;6.726;2022-08-20T14:59:04;24.50;94.10
59007;DHT22;44792;52.760;6.726;2022-08-20T15:01:29;24.60;94.20
59007;DHT22;44792;52.760;6.726;2022-08-20T15:03:55;24.60;93.80
59007;DHT22;44792;52.760;6.726;2022-08-20T15:06:21;24.60;94.10
59007;DHT22;44792;52.760;6.726;2022-08-20T15:08:46;24.50;94.10
59007;DHT22;44792;52.760;6.726;2022-08-20T15:11:12;24.50;94.40
59007;DHT22;44792;52.760;6.726;2022-08-20T15:13:38;24.60;94.70
59007;DHT22;44792;52.760;6.726;2022-08-20T15:16:03;24.60;94.40
59007;DHT22;44792;52.760;6.726;2022-08-20T15:18:29;24.60;94.20
59007;DHT22;44792;52.760;6.726;2022-08-20T15:20:55;24.60;94.00
59007;DHT22;44792;52.760;6.726;2022-08-20T15:23:21;24.60;93.90
59007;DHT22;44792;52.760;6.726;2022-08-20T15:25:47;24.60;94.10
59007;DHT22;44792;52.760;6.726;2022-08-20T15:28:12;24.50;93.90
59007;DHT22;44792;52.760;6.726;2022-08-20T15:30:40;24.60;93.70
59007;DHT22;44792;52.760;6.726;2022-08-20T15:33:07;24.60;94.50
59007;DHT22;44792;52.760;6.726;2022-08-20T15:35:33;24.70;94.10
59007;DHT22;44792;52.760;6.726;2022-08-20T15:37:59;24.60;94.10